Time;durP1;ratioP1;P1;durP2;ratioP2;P2;SDS_P1;SDS_P2;PMS_P1;PMS_P2;Temp;Humidity;BMP_temperature;BMP_pressure;BME280_temperature;BME280_humidity;BME280_pressure;Samples;Min_cycle;Max_cycle;Signal;HPM_P1;HPM_P2
2021/01/15 00:02:24;;;;;;;40.83;31.63;;;16.80;99.90;;;;;;5072715;28;20363;-34
2021/01/15 00:04:50;;;;;;;35.92;30.15;;;16.80;99.90;;;;;;5073027;28;20101;-33
2021/01/15 00:07:16;;;;;;;36.47;29.67;;;16.80;99.90;;;;;;5072824;28;20538;-33
2021/01/15 00:09:42;;;;;;;37.90;30.95;;;16.80;99.90;;;;;;5072696;28;20021;-33
2021/01/15 00:12:08;;;;;;;39.53;30.17;;;16.80;99.90;;;;;;5072586;28;20032;-33
2021/01/15 00:14:34;;;;;;;39.20;30.35;;;16.80;99.90;;;;;;5068411;28;20036;-33
2021/01/15 00:17:00;;;;;;;36.92;28.38;;;16.80;99.90;;;;;;5072558;28;20021;-33
2021/01/15 00:19:26;;;;;;;38.10;29.10;;;16.80;99.90;;;;;;5072686;28;20413;-33
2021/01/15 00:21:52;;;;;;;36.67;29.23;;;16.70;99.90;;;;;;5072586;28;20135;-34
2021/01/15 00:24:19;;;;;;;36.05;28.67;;;16.80;99.90;;;;;;5072693;28;20025;-33
2021/01/15 00:26:47;;;;;;;36.13;27.35;;;16.80;99.90;;;;;;5071478;28;20044;-33
2021/01/15 00:29:15;;;;;;;32.28;26.38;;;16.70;99.90;;;;;;5072935;28;20032;-32
2021/01/15 00:31:43;;;;;;;29.88;25.83;;;16.70;99.90;;;;;;5072730;28;20037;-32
2021/01/15 00:34:12;;;;;;;29.70;24.83;;;16.70;99.90;;;;;;5074622;28;20372;-33
2021/01/15 00:36:39;;;;;;;33.83;27.42;;;16.70;99.90;;;;;;5076488;28;20037;-33
2021/01/15 00:39:08;;;;;;;35.85;28.08;;;16.70;99.90;;;;;;5076280;28;20025;-33
2021/01/15 00:41:38;;;;;;;40.95;30.30;;;16.60;99.90;;;;;;5076446;28;20025;-33
2021/01/15 00:44:06;;;;;;;36.78;27.85;;;16.60;99.90;;;;;;5076491;28;20028;-34
2021/01/15 00:46:32;;;;;;;33.17;25.83;;;16.60;99.90;;;;;;5076247;28;20033;-33
2021/01/15 00:49:08;;;;;;;33.75;25.88;;;16.50;99.90;;;;;;5075934;28;20036;-33
2021/01/15 00:51:35;;;;;;;29.95;23.60;;;16.40;99.90;;;;;;5076086;28;20021;-33
2021/01/15 00:54:05;;;;;;;29.65;22.15;;;16.30;99.90;;;;;;5075965;28;20134;-33
2021/01/15 00:56:32;;;;;;;25.98;21.02;;;16.40;99.90;;;;;;5075847;28;20040;-33
2021/01/15 00:58:58;;;;;;;23.90;18.90;;;16.30;99.90;;;;;;5075869;28;20029;-33
2021/01/15 01:01:25;;;;;;;22.17;17.52;;;16.30;99.90;;;;;;5075872;28;20043;-33
2021/01/15 01:03:51;;;;;;;22.35;17.20;;;16.30;99.90;;;;;;5076036;28;20117;-33
2021/01/15 01:06:22;;;;;;;21.38;16.48;;;16.20;99.90;;;;;;5075932;28;20417;-33
2021/01/15 01:08:48;;;;;;;21.65;15.98;;;16.20;99.90;;;;;;5075623;28;20028;-34
2021/01/15 01:11:24;;;;;;;22.70;16.50;;;16.20;99.90;;;;;;5075690;28;20546;-33
2021/01/15 01:13:55;;;;;;;19.77;14.93;;;16.10;99.90;;;;;;5075724;28;20024;-33
2021/01/15 01:16:22;;;;;;;18.02;14.23;;;16.10;99.90;;;;;;5074201;28;20029;-33
2021/01/15 01:18:49;;;;;;;17.00;13.10;;;16.10;99.90;;;;;;5075434;28;20541;-34
2021/01/15 01:21:15;;;;;;;18.02;13.98;;;16.10;99.90;;;;;;5075557;28;20030;-33
2021/01/15 01:23:42;;;;;;;17.17;12.82;;;16.10;99.90;;;;;;5075680;28;20024;-33
2021/01/15 01:26:08;;;;;;;14.23;12.10;;;16.10;99.90;;;;;;5075577;28;20032;-33
2021/01/15 01:28:34;;;;;;;15.93;12.15;;;16.10;99.90;;;;;;5074672;28;20024;-33
2021/01/15 01:31:00;;;;;;;16.40;12.70;;;16.10;99.90;;;;;;5073499;28;20084;-33
2021/01/15 01:33:26;;;;;;;16.02;11.73;;;16.00;99.90;;;;;;5075126;28;20058;-33
2021/01/15 01:35:52;;;;;;;17.02;12.20;;;16.00;99.90;;;;;;5075430;28;20445;-33
2021/01/15 01:38:18;;;;;;;16.75;12.27;;;16.00;99.90;;;;;;5075380;28;20040;-32
2021/01/15 01:40:45;;;;;;;15.40;11.45;;;16.00;99.90;;;;;;5075328;28;20073;-33
2021/01/15 01:43:11;;;;;;;15.65;11.70;;;16.00;99.90;;;;;;5074872;28;20021;-34
2021/01/15 01:45:36;;;;;;;14.60;10.93;;;15.90;99.90;;;;;;5074120;28;20032;-33
2021/01/15 01:48:03;;;;;;;18.00;11.63;;;16.00;99.90;;;;;;5074919;28;20105;-33
2021/01/15 01:50:30;;;;;;;14.65;10.68;;;15.90;99.90;;;;;;5075176;28;20020;-34
2021/01/15 01:52:57;;;;;;;16.10;11.57;;;15.90;99.90;;;;;;5074786;28;20028;-33
2021/01/15 01:55:23;;;;;;;14.80;11.40;;;15.90;99.90;;;;;;5074818;28;20039;-33
2021/01/15 01:57:49;;;;;;;17.00;11.57;;;15.90;99.90;;;;;;5074789;28;20024;-33
2021/01/15 02:00:16;;;;;;;14.55;11.00;;;15.80;99.90;;;;;;5074794;28;20021;-33
2021/01/15 02:02:42;;;;;;;16.48;12.25;;;15.90;99.90;;;;;;5064842;28;20421;-34
2021/01/15 02:05:08;;;;;;;14.00;10.43;;;15.90;99.90;;;;;;5054638;28;20035;-34
2021/01/15 02:07:35;;;;;;;16.20;11.32;;;15.90;99.90;;;;;;5055166;28;20036;-34
2021/01/15 02:10:14;;;;;;;15.45;11.35;;;15.90;99.90;;;;;;5054689;28;20079;-34
2021/01/15 02:13:14;;;;;;;15.68;11.77;;;15.90;99.90;;;;;;5054489;28;20017;-33
2021/01/15 02:15:56;;;;;;;15.35;11.02;;;15.90;99.90;;;;;;5054283;28;20033;-33
2021/01/15 02:18:40;;;;;;;15.43;11.23;;;15.80;99.90;;;;;;5054328;28;20021;-34
2021/01/15 02:21:28;;;;;;;15.48;10.85;;;15.80;99.90;;;;;;5054363;28;20028;-33
2021/01/15 02:24:02;;;;;;;12.45;10.45;;;15.80;99.90;;;;;;5054254;28;20079;-33
2021/01/15 02:27:05;;;;;;;15.60;11.65;;;15.80;99.90;;;;;;5054357;28;20067;-33
2021/01/15 02:29:32;;;;;;;14.38;10.65;;;15.80;99.90;;;;;;5054187;28;20029;-32
2021/01/15 02:32:29;;;;;;;15.40;10.63;;;15.80;99.90;;;;;;5054073;28;20060;-33
2021/01/15 02:35:09;;;;;;;13.30;9.43;;;15.70;99.90;;;;;;5054140;28;20032;-33
2021/01/15 02:38:12;;;;;;;15.98;10.77;;;15.80;99.90;;;;;;5054042;28;20075;-33
2021/01/15 02:41:16;;;;;;;14.55;10.25;;;15.80;99.90;;;;;;5047376;28;20033;-33
2021/01/15 02:43:43;;;;;;;15.55;11.60;;;15.70;99.90;;;;;;5031700;28;20029;-33
2021/01/15 02:46:13;;;;;;;14.95;10.30;;;15.70;99.90;;;;;;5032224;28;20485;-34
2021/01/15 02:48:41;;;;;;;15.57;9.90;;;15.70;99.90;;;;;;5031879;28;20140;-33
2021/01/15 02:51:07;;;;;;;13.85;10.57;;;15.70;99.90;;;;;;5031986;28;20033;-34
2021/01/15 02:53:34;;;;;;;17.02;10.93;;;15.70;99.90;;;;;;5031766;28;20065;-34
2021/01/15 02:56:00;;;;;;;13.47;10.23;;;15.70;99.90;;;;;;5031451;28;20113;-33
2021/01/15 02:58:26;;;;;;;14.23;10.25;;;15.70;99.90;;;;;;5031723;28;20101;-33
2021/01/15 03:00:51;;;;;;;13.98;10.25;;;15.70;99.90;;;;;;5031562;28;20033;-34
2021/01/15 03:03:27;;;;;;;15.98;10.23;;;15.60;99.90;;;;;;5031748;28;20574;-34
2021/01/15 03:06:04;;;;;;;14.32;10.70;;;15.70;99.90;;;;;;5032132;28;20036;-33
2021/01/15 03:08:31;;;;;;;15.02;10.75;;;15.70;99.90;;;;;;5032087;28;20419;-34
2021/01/15 03:11:01;;;;;;;15.60;10.27;;;15.60;99.90;;;;;;5031666;28;20029;-34
2021/01/15 03:13:29;;;;;;;15.15;11.30;;;15.60;99.90;;;;;;5031495;28;20040;-34
2021/01/15 03:16:00;;;;;;;14.00;9.82;;;15.60;99.90;;;;;;5031392;28;20422;-33
2021/01/15 03:18:26;;;;;;;17.88;10.05;;;15.70;99.90;;;;;;5035865;28;20040;-33
2021/01/15 03:20:53;;;;;;;12.90;9.77;;;15.60;99.90;;;;;;5053512;28;20017;-33
2021/01/15 03:23:18;;;;;;;14.07;10.23;;;15.60;99.90;;;;;;5053236;28;20025;-33
2021/01/15 03:25:44;;;;;;;13.88;9.98;;;15.60;99.90;;;;;;5052584;28;20032;-34
2021/01/15 03:28:10;;;;;;;13.40;9.93;;;15.60;99.90;;;;;;5052985;28;20100;-34
2021/01/15 03:30:36;;;;;;;15.18;10.50;;;15.60;99.90;;;;;;5053527;28;20029;-34
2021/01/15 03:33:04;;;;;;;13.57;9.88;;;15.60;99.90;;;;;;5053147;28;20052;-33
2021/01/15 03:35:32;;;;;;;15.80;10.05;;;15.60;99.90;;;;;;5053068;28;20075;-33
2021/01/15 03:38:06;;;;;;;13.43;10.18;;;15.60;99.90;;;;;;5052211;28;20024;-33
2021/01/15 03:40:37;;;;;;;12.68;10.23;;;15.60;99.90;;;;;;5053192;28;20021;-34
2021/01/15 03:43:16;;;;;;;13.63;9.43;;;15.60;99.90;;;;;;5053217;28;20017;-33
2021/01/15 03:45:43;;;;;;;14.88;9.20;;;15.60;99.90;;;;;;5053060;28;20032;-34
2021/01/15 03:48:10;;;;;;;14.75;10.10;;;15.50;99.90;;;;;;5053203;28;20029;-33
2021/01/15 03:50:36;;;;;;;13.05;9.52;;;15.60;99.90;;;;;;5061840;28;20137;-33
2021/01/15 03:53:02;;;;;;;13.15;9.65;;;15.60;99.90;;;;;;5073000;28;20035;-33
2021/01/15 03:55:28;;;;;;;13.23;9.32;;;15.60;99.90;;;;;;5072968;28;20024;-34
2021/01/15 03:57:54;;;;;;;15.70;10.85;;;15.50;99.90;;;;;;5073215;28;20063;-33
2021/01/15 04:00:20;;;;;;;12.02;9.52;;;15.60;99.90;;;;;;5072974;28;20041;-33
2021/01/15 04:02:46;;;;;;;14.85;10.43;;;15.50;99.90;;;;;;5073292;28;20028;-33
2021/01/15 04:05:13;;;;;;;14.77;10.23;;;15.50;99.90;;;;;;5071675;28;20024;-33
2021/01/15 04:07:42;;;;;;;14.52;10.98;;;15.50;99.90;;;;;;5074028;28;20056;-33
2021/01/15 04:10:14;;;;;;;13.40;10.15;;;15.50;99.90;;;;;;5076763;28;20039;-33
2021/01/15 04:12:41;;;;;;;14.48;10.20;;;15.50;99.90;;;;;;5077120;28;20409;-33
2021/01/15 04:15:08;;;;;;;15.23;10.35;;;15.50;99.90;;;;;;5076563;28;20021;-33
2021/01/15 04:17:35;;;;;;;15.43;12.50;;;15.50;99.90;;;;;;5076632;28;20025;-34
2021/01/15 04:20:02;;;;;;;15.48;10.77;;;15.50;99.90;;;;;;5076486;28;20082;-33
2021/01/15 04:22:45;;;;;;;14.37;10.60;;;15.50;99.90;;;;;;5076620;28;20028;-32
2021/01/15 04:25:12;;;;;;;12.60;9.55;;;15.50;99.90;;;;;;5075204;28;20052;-33
2021/01/15 04:27:39;;;;;;;16.55;10.90;;;15.50;99.90;;;;;;5076513;28;20109;-33
2021/01/15 04:30:07;;;;;;;15.48;11.25;;;15.60;99.90;;;;;;5076566;28;20064;-33
2021/01/15 04:32:33;;;;;;;15.07;11.18;;;15.50;99.90;;;;;;5076113;28;20055;-33
2021/01/15 04:35:00;;;;;;;14.05;10.35;;;15.50;99.90;;;;;;5076217;28;20483;-33
2021/01/15 04:37:26;;;;;;;16.13;10.85;;;15.50;99.90;;;;;;5076322;28;20075;-33
2021/01/15 04:39:53;;;;;;;13.40;10.48;;;15.50;99.90;;;;;;5076378;28;20029;-33
2021/01/15 04:42:20;;;;;;;12.75;9.68;;;15.50;99.90;;;;;;5076280;28;20100;-33
2021/01/15 04:44:47;;;;;;;14.00;10.50;;;15.50;99.90;;;;;;5076130;28;20137;-33
2021/01/15 04:47:13;;;;;;;15.48;9.82;;;15.50;99.90;;;;;;5076127;28;20035;-33
2021/01/15 04:49:40;;;;;;;13.45;9.80;;;15.50;99.90;;;;;;5076290;28;20025;-33
2021/01/15 04:52:15;;;;;;;15.82;10.10;;;15.50;99.90;;;;;;5076126;28;20063;-33
2021/01/15 04:54:42;;;;;;;13.27;10.32;;;15.50;99.90;;;;;;5075820;28;20031;-33
2021/01/15 04:57:10;;;;;;;14.40;9.80;;;15.40;99.90;;;;;;5075841;28;20355;-32
2021/01/15 04:59:49;;;;;;;14.85;10.40;;;15.50;99.90;;;;;;5076032;28;20086;-33
2021/01/15 05:02:19;;;;;;;14.63;9.20;;;15.50;99.90;;;;;;5075967;28;20398;-33
2021/01/15 05:04:45;;;;;;;13.00;9.77;;;15.50;99.90;;;;;;5075850;28;20370;-33
2021/01/15 05:07:12;;;;;;;16.17;10.40;;;15.40;99.90;;;;;;5075998;28;20021;-33
2021/01/15 05:09:38;;;;;;;15.18;9.00;;;15.40;99.90;;;;;;5075629;28;20103;-33
2021/01/15 05:12:12;;;;;;;14.05;9.90;;;15.40;99.90;;;;;;5075610;28;20100;-33
2021/01/15 05:14:41;;;;;;;13.68;9.65;;;15.50;99.90;;;;;;5075862;28;20036;-33
2021/01/15 05:17:08;;;;;;;12.80;9.77;;;15.40;99.90;;;;;;5075574;28;20490;-33
2021/01/15 05:19:39;;;;;;;13.82;10.23;;;15.50;99.90;;;;;;5090758;28;20028;-33
2021/01/15 05:22:06;;;;;;;16.90;10.88;;;15.40;99.90;;;;;;5075164;28;20103;-33
2021/01/15 05:24:32;;;;;;;21.63;11.25;;;15.40;99.90;;;;;;5075221;28;20035;-34
2021/01/15 05:27:02;;;;;;;15.18;11.23;;;15.40;99.90;;;;;;5075305;28;20033;-34
2021/01/15 05:29:28;;;;;;;14.55;10.52;;;15.40;99.90;;;;;;5075369;28;20031;-34
2021/01/15 05:31:59;;;;;;;14.88;11.32;;;15.40;99.90;;;;;;5074859;28;20040;-33
2021/01/15 05:34:27;;;;;;;16.70;11.27;;;15.40;99.90;;;;;;5073827;28;20042;-35
2021/01/15 05:36:53;;;;;;;16.80;11.75;;;15.40;99.90;;;;;;5073957;28;20543;-34
2021/01/15 05:39:27;;;;;;;13.88;11.30;;;15.30;99.90;;;;;;5073067;28;20060;-34
2021/01/15 05:42:02;;;;;;;18.48;12.30;;;15.40;99.90;;;;;;5075043;28;20020;-34
2021/01/15 05:44:33;;;;;;;17.83;11.75;;;15.40;99.90;;;;;;5075053;28;20048;-33
2021/01/15 05:47:01;;;;;;;20.17;11.82;;;15.30;99.90;;;;;;5075104;28;20355;-34
2021/01/15 05:49:27;;;;;;;15.23;11.80;;;15.30;99.90;;;;;;5074956;28;20142;-34
2021/01/15 05:51:53;;;;;;;16.90;11.82;;;15.30;99.90;;;;;;5074852;28;20029;-33
2021/01/15 05:54:31;;;;;;;17.38;12.48;;;15.30;99.90;;;;;;5074649;28;20024;-33
2021/01/15 05:56:57;;;;;;;18.92;12.52;;;15.30;99.90;;;;;;5075059;28;20095;-34
2021/01/15 05:59:23;;;;;;;17.73;12.27;;;15.30;99.90;;;;;;5074803;28;20058;-33
2021/01/15 06:01:51;;;;;;;16.70;12.85;;;15.40;99.90;;;;;;5074523;28;20054;-35
2021/01/15 06:04:19;;;;;;;;;;;15.30;99.90;;;;;;5073436;28;20025;-35
2021/01/15 06:06:46;;;;;;;;;;;15.40;99.90;;;;;;5071645;28;20376;-34
2021/01/15 06:09:18;;;;;;;19.88;12.07;;;15.40;99.90;;;;;;5073732;28;19918;-33
2021/01/15 06:11:44;;;;;;;16.25;12.68;;;15.40;99.90;;;;;;5069532;28;20024;-33
2021/01/15 06:14:26;;;;;;;16.42;12.07;;;15.30;99.90;;;;;;5074047;28;20316;-33
2021/01/15 06:17:06;;;;;;;17.40;13.20;;;15.30;99.90;;;;;;5054302;28;20494;-33
2021/01/15 06:19:55;;;;;;;15.73;12.13;;;15.30;99.90;;;;;;5065309;28;20020;-33
2021/01/15 06:22:45;;;;;;;15.60;12.50;;;15.20;99.90;;;;;;5065022;28;20040;-32
2021/01/15 06:25:30;;;;;;;21.33;13.32;;;15.30;99.90;;;;;;5073214;28;20020;-33
2021/01/15 06:28:01;;;;;;;17.60;12.50;;;15.30;99.90;;;;;;5073323;28;20078;-32
2021/01/15 06:30:29;;;;;;;16.88;11.75;;;15.20;99.90;;;;;;5061080;28;20024;-33
2021/01/15 06:33:10;;;;;;;18.90;13.13;;;15.20;99.90;;;;;;5072984;28;20060;-32
2021/01/15 06:35:38;;;;;;;19.02;12.93;;;15.20;99.90;;;;;;5069560;28;20085;-32
2021/01/15 06:38:08;;;;;;;18.10;13.35;;;15.30;99.90;;;;;;5073174;28;20024;-33
2021/01/15 06:40:45;;;;;;;18.35;14.00;;;15.20;99.90;;;;;;5063938;28;20091;-32
2021/01/15 06:43:26;;;;;;;22.05;14.18;;;15.30;99.90;;;;;;5068470;28;20025;-32
2021/01/15 06:45:55;;;;;;;18.40;13.40;;;15.20;99.90;;;;;;5071405;28;20024;-33
2021/01/15 06:48:22;;;;;;;19.35;13.55;;;15.20;99.90;;;;;;5072833;28;20029;-33
2021/01/15 06:50:51;;;;;;;20.30;13.82;;;15.20;99.90;;;;;;5073120;28;20036;-33
2021/01/15 06:53:20;;;;;;;20.17;13.43;;;15.20;99.90;;;;;;5073231;28;20024;-33
2021/01/15 06:56:01;;;;;;;18.20;13.90;;;15.20;99.90;;;;;;5072650;28;20031;-33
2021/01/15 06:58:39;;;;;;;18.58;13.32;;;15.20;99.90;;;;;;5071862;28;20375;-33
2021/01/15 07:01:17;;;;;;;19.23;13.82;;;15.20;99.90;;;;;;5072748;28;20041;-33
2021/01/15 07:04:20;;;;;;;17.65;13.73;;;15.20;99.90;;;;;;5071719;28;20036;-33
2021/01/15 07:07:13;;;;;;;17.83;12.68;;;15.20;99.90;;;;;;5065490;28;20082;-34
2021/01/15 07:09:42;;;;;;;18.75;14.40;;;15.20;99.90;;;;;;5052695;28;20100;-34
2021/01/15 07:12:14;;;;;;;20.88;14.88;;;15.20;99.90;;;;;;5063743;28;20502;-34
2021/01/15 07:15:01;;;;;;;18.27;14.40;;;15.30;99.90;;;;;;5070296;28;20570;-34
2021/01/15 07:17:37;;;;;;;21.92;13.57;;;15.20;99.90;;;;;;5072027;28;20024;-34
2021/01/15 07:20:05;;;;;;;19.30;14.32;;;15.30;99.90;;;;;;5072174;28;20024;-34
2021/01/15 07:22:38;;;;;;;19.00;13.38;;;15.20;99.90;;;;;;5071744;28;20444;-33
2021/01/15 07:25:05;;;;;;;19.10;13.70;;;15.20;99.90;;;;;;5071983;28;20035;-33
2021/01/15 07:27:32;;;;;;;17.42;13.30;;;15.20;99.90;;;;;;5070499;28;20025;-33
2021/01/15 07:29:59;;;;;;;73.85;49.53;;;15.20;99.90;;;;;;5072279;28;20032;-33
2021/01/15 07:32:31;;;;;;;425.37;328.13;;;15.20;99.90;;;;;;5071923;28;20072;-34
2021/01/15 07:34:59;;;;;;;233.10;171.15;;;15.10;99.90;;;;;;5071929;28;20021;-34
2021/01/15 07:37:26;;;;;;;309.63;253.93;;;15.00;99.90;;;;;;5071903;28;20048;-33
2021/01/15 07:40:08;;;;;;;247.65;189.15;;;15.00;99.90;;;;;;5072449;28;20075;-33
2021/01/15 07:42:40;;;;;;;218.52;162.32;;;14.90;99.90;;;;;;5073614;28;20048;-34
2021/01/15 07:45:07;;;;;;;246.25;181.77;;;15.00;99.90;;;;;;5076807;28;20107;-34
2021/01/15 07:47:37;;;;;;;309.85;235.60;;;15.00;99.90;;;;;;5076098;28;20016;-34
2021/01/15 07:50:05;;;;;;;311.50;236.98;;;14.90;99.90;;;;;;5075706;28;20475;-32
2021/01/15 07:52:31;;;;;;;294.88;225.35;;;15.00;99.90;;;;;;5075895;28;20029;-33
2021/01/15 07:54:59;;;;;;;269.02;209.75;;;15.10;99.90;;;;;;5075588;28;20025;-33
2021/01/15 07:57:26;;;;;;;257.40;194.07;;;15.20;99.90;;;;;;5075559;28;20024;-34
2021/01/15 07:59:51;;;;;;;235.45;178.10;;;15.20;99.90;;;;;;5075972;28;20462;-34
2021/01/15 08:02:18;;;;;;;219.65;166.68;;;15.30;99.90;;;;;;5076271;28;20100;-33
2021/01/15 08:04:44;;;;;;;211.73;156.57;;;15.30;99.90;;;;;;5076090;28;20074;-34
2021/01/15 08:07:33;;;;;;;197.10;146.05;;;15.30;99.90;;;;;;5075222;28;20024;-34
2021/01/15 08:09:59;;;;;;;180.88;136.07;;;15.40;99.90;;;;;;5075293;28;20025;-34
2021/01/15 08:12:25;;;;;;;157.15;123.38;;;15.40;99.90;;;;;;5075708;28;20443;-34
2021/01/15 08:14:51;;;;;;;158.10;120.85;;;15.40;99.90;;;;;;5075440;28;20033;-34
2021/01/15 08:17:27;;;;;;;154.13;116.15;;;15.40;99.90;;;;;;5075409;28;20411;-33
2021/01/15 08:19:53;;;;;;;135.68;103.38;;;15.40;99.90;;;;;;5075587;28;20078;-35
2021/01/15 08:22:20;;;;;;;121.38;92.78;;;15.40;99.90;;;;;;5075371;28;20048;-34
2021/01/15 08:24:46;;;;;;;112.70;85.68;;;15.50;99.90;;;;;;5075611;28;20025;-34
2021/01/15 08:27:20;;;;;;;103.97;79.57;;;15.50;99.90;;;;;;5075432;28;20070;-33
2021/01/15 08:29:46;;;;;;;100.63;74.32;;;15.50;99.90;;;;;;5075348;28;20079;-34
2021/01/15 08:32:12;;;;;;;94.28;70.82;;;15.60;99.90;;;;;;5075335;28;20049;-33
2021/01/15 08:34:39;;;;;;;86.10;65.10;;;15.50;99.90;;;;;;5075131;28;20063;-34
2021/01/15 08:37:07;;;;;;;83.30;62.28;;;15.60;99.90;;;;;;5074937;28;20066;-34
2021/01/15 08:39:46;;;;;;;81.90;61.97;;;15.60;99.90;;;;;;5075392;28;20027;-34
2021/01/15 08:42:13;;;;;;;76.55;57.85;;;15.60;99.90;;;;;;5073084;28;20020;-34
2021/01/15 08:44:40;;;;;;;74.50;54.13;;;15.70;99.90;;;;;;5074943;28;20024;-34
2021/01/15 08:47:17;;;;;;;69.85;54.38;;;15.80;99.90;;;;;;5075000;28;20444;-33
2021/01/15 08:49:57;;;;;;;68.07;53.17;;;15.80;99.90;;;;;;5075484;28;20013;-34
2021/01/15 08:52:29;;;;;;;66.25;50.65;;;15.80;99.90;;;;;;5075562;28;20762;-33
2021/01/15 08:54:56;;;;;;;64.85;49.55;;;15.80;99.90;;;;;;5074920;28;20027;-34
2021/01/15 08:57:28;;;;;;;63.27;47.47;;;15.90;99.90;;;;;;5075360;28;20028;-34
2021/01/15 09:00:10;;;;;;;61.47;45.45;;;15.80;99.90;;;;;;5075540;28;20378;-34
2021/01/15 09:02:39;;;;;;;58.35;45.22;;;15.90;99.90;;;;;;5075883;28;20374;-33
2021/01/15 09:05:09;;;;;;;56.97;42.58;;;15.90;99.90;;;;;;5075744;28;20366;-34
2021/01/15 09:07:43;;;;;;;54.03;42.30;;;15.90;99.90;;;;;;5075270;28;20055;-35
2021/01/15 09:10:11;;;;;;;54.28;41.92;;;15.90;99.90;;;;;;5075615;28;20028;-34
2021/01/15 09:12:48;;;;;;;56.30;41.92;;;16.00;99.90;;;;;;5075475;28;20031;-35
2021/01/15 09:15:25;;;;;;;61.95;48.55;;;16.00;99.90;;;;;;5073670;28;20405;-35
2021/01/15 09:17:51;;;;;;;62.27;48.20;;;15.90;99.90;;;;;;5073869;28;20470;-34
2021/01/15 09:20:18;;;;;;;60.53;46.03;;;15.90;99.90;;;;;;5075258;28;20731;-35
2021/01/15 09:22:44;;;;;;;59.10;45.70;;;15.80;99.90;;;;;;5075044;28;20546;-34
2021/01/15 09:25:15;;;;;;;60.70;43.95;;;15.90;99.90;;;;;;5075115;28;20493;-34
2021/01/15 09:27:42;;;;;;;55.45;42.92;;;15.90;99.90;;;;;;5074461;28;20360;-35
2021/01/15 09:30:09;;;;;;;53.05;41.85;;;15.90;99.90;;;;;;5074515;28;20384;-34
2021/01/15 09:32:35;;;;;;;51.90;39.50;;;16.00;99.90;;;;;;5074938;28;20198;-34
2021/01/15 09:35:01;;;;;;;52.42;39.60;;;16.00;99.90;;;;;;5074832;28;20536;-34
2021/01/15 09:37:27;;;;;;;49.58;39.25;;;16.00;99.90;;;;;;5073768;28;20059;-34
2021/01/15 09:39:53;;;;;;;51.78;39.95;;;16.00;99.90;;;;;;5075066;28;20073;-34
2021/01/15 09:42:18;;;;;;;53.67;42.00;;;16.10;99.90;;;;;;5074738;28;20029;-35
2021/01/15 09:44:44;;;;;;;54.70;42.65;;;16.10;99.90;;;;;;5074948;28;20075;-34
2021/01/15 09:47:10;;;;;;;54.08;40.28;;;16.20;99.90;;;;;;5074447;28;20036;-34
2021/01/15 09:49:36;;;;;;;53.30;38.65;;;16.20;99.90;;;;;;5074277;28;20020;-35
2021/01/15 09:52:03;;;;;;;50.70;36.50;;;16.30;99.90;;;;;;5074752;28;20020;-35
2021/01/15 09:54:29;;;;;;;43.42;33.38;;;16.40;99.90;;;;;;5074523;28;20020;-34
2021/01/15 09:56:55;;;;;;;46.95;34.60;;;16.50;99.90;;;;;;5074646;28;20021;-34
2021/01/15 09:59:21;;;;;;;40.55;25.30;;;16.40;99.90;;;;;;5074727;28;20374;-34
2021/01/15 10:01:47;;;;;;;35.08;25.30;;;16.40;99.90;;;;;;5074567;28;20020;-34
2021/01/15 10:04:15;;;;;;;33.88;24.73;;;16.50;99.90;;;;;;5074693;28;20021;-35
2021/01/15 10:06:43;;;;;;;33.38;24.73;;;16.40;99.90;;;;;;5072444;28;20378;-34
2021/01/15 10:09:10;;;;;;;46.72;23.98;;;16.40;99.90;;;;;;5074286;28;20029;-33
2021/01/15 10:11:38;;;;;;;33.72;26.05;;;16.30;99.90;;;;;;5074449;28;20417;-33
2021/01/15 10:14:09;;;;;;;36.58;23.75;;;16.40;99.90;;;;;;5074207;28;20056;-36
2021/01/15 10:16:43;;;;;;;34.45;21.42;;;16.40;99.90;;;;;;5074302;28;20051;-33
2021/01/15 10:19:10;;;;;;;26.63;18.65;;;16.40;99.90;;;;;;5074178;28;20046;-33
2021/01/15 10:21:39;;;;;;;26.73;17.33;;;16.40;99.90;;;;;;5073699;28;20028;-33
2021/01/15 10:24:06;;;;;;;26.15;16.20;;;16.40;99.90;;;;;;5073419;28;20103;-34
2021/01/15 10:26:34;;;;;;;22.05;14.27;;;16.50;99.90;;;;;;5073800;28;20052;-34
2021/01/15 10:29:06;;;;;;;22.98;12.65;;;16.50;99.90;;;;;;5073259;28;20064;-33
2021/01/15 10:31:54;;;;;;;15.73;11.15;;;16.40;99.90;;;;;;5073542;28;20490;-33
2021/01/15 10:34:21;;;;;;;17.25;11.98;;;16.50;99.90;;;;;;5072729;28;20028;-34
2021/01/15 10:36:48;;;;;;;18.60;12.13;;;16.50;99.90;;;;;;5073324;28;20470;-34
2021/01/15 10:39:15;;;;;;;15.38;10.82;;;16.60;99.90;;;;;;5072985;28;20099;-34
2021/01/15 10:41:47;;;;;;;15.07;10.63;;;16.60;99.90;;;;;;5073230;28;20017;-33
2021/01/15 10:44:16;;;;;;;16.80;10.55;;;16.60;99.90;;;;;;5073696;28;20494;-33
2021/01/15 10:46:50;;;;;;;18.63;9.88;;;16.70;99.90;;;;;;5073804;28;20032;-34
2021/01/15 10:49:18;;;;;;;15.70;10.95;;;16.80;99.90;;;;;;5073459;28;20060;-34
2021/01/15 10:51:44;;;;;;;;;;;16.80;99.90;;;;;;5073900;28;20029;-33
2021/01/15 10:54:10;;;;;;;15.55;9.63;;;16.90;99.90;;;;;;5073990;28;19905;-33
2021/01/15 10:56:41;;;;;;;18.08;10.60;;;17.00;99.90;;;;;;5073489;28;20020;-33
2021/01/15 10:59:08;;;;;;;19.58;10.23;;;17.10;99.90;;;;;;5073132;28;20016;-34
2021/01/15 11:01:41;;;;;;;20.88;10.20;;;17.20;99.90;;;;;;5073669;28;20016;-33
2021/01/15 11:04:09;;;;;;;13.60;9.45;;;17.20;99.90;;;;;;5071761;28;20028;-34
2021/01/15 11:06:35;;;;;;;14.68;9.65;;;17.30;99.90;;;;;;5068630;28;20031;-34
2021/01/15 11:09:02;;;;;;;16.80;10.23;;;17.40;99.90;;;;;;5053051;28;20029;-35
2021/01/15 11:11:28;;;;;;;48.15;31.27;;;17.50;99.90;;;;;;5063238;28;20031;-34
2021/01/15 11:13:54;;;;;;;58.88;44.42;;;17.70;99.90;;;;;;5071362;28;20017;-34
2021/01/15 11:16:20;;;;;;;26.42;18.90;;;17.80;99.90;;;;;;5072354;28;20497;-34
2021/01/15 11:18:45;;;;;;;22.58;15.35;;;17.90;99.90;;;;;;5071363;28;20025;-34
2021/01/15 11:21:11;;;;;;;19.10;12.63;;;18.00;99.90;;;;;;5072822;28;20027;-34
2021/01/15 11:23:37;;;;;;;18.75;11.35;;;18.10;99.90;;;;;;5072338;28;20107;-34
2021/01/15 11:26:03;;;;;;;16.75;10.23;;;18.20;99.90;;;;;;5072643;28;20033;-34
2021/01/15 11:28:29;;;;;;;16.05;10.18;;;18.20;99.90;;;;;;5072825;28;20032;-35
2021/01/15 11:30:55;;;;;;;17.08;10.65;;;18.30;99.90;;;;;;5071754;28;20036;-35
2021/01/15 11:33:21;;;;;;;13.65;9.82;;;18.40;99.90;;;;;;5072523;28;20123;-33
2021/01/15 11:35:48;;;;;;;16.52;10.60;;;18.40;99.90;;;;;;5072562;28;20441;-34
2021/01/15 11:38:14;;;;;;;23.55;9.80;;;18.40;99.90;;;;;;5073098;28;20362;-34
2021/01/15 11:40:39;;;;;;;111.93;82.07;;;18.50;99.90;;;;;;5072563;28;20021;-34
2021/01/15 11:43:05;;;;;;;28.13;20.13;;;18.60;99.90;;;;;;5071865;28;20016;-33
2021/01/15 11:45:31;;;;;;;29.05;22.02;;;18.70;99.90;;;;;;5071212;28;20158;-34
2021/01/15 11:47:57;;;;;;;30.15;22.40;;;18.90;99.90;;;;;;5072503;28;20029;-34
2021/01/15 11:50:25;;;;;;;24.33;17.90;;;19.10;99.90;;;;;;5072253;28;20028;-34
2021/01/15 11:52:57;;;;;;;23.98;15.10;;;19.30;99.90;;;;;;5072355;28;20029;-33
2021/01/15 11:55:23;;;;;;;17.90;13.68;;;19.40;99.90;;;;;;5072574;28;20039;-35
2021/01/15 11:57:53;;;;;;;23.08;15.02;;;19.60;99.90;;;;;;5072387;28;20051;-35
2021/01/15 12:00:22;;;;;;;20.38;14.60;;;19.70;99.90;;;;;;5072027;28;20096;-35
2021/01/15 12:02:48;;;;;;;19.50;14.23;;;19.80;99.90;;;;;;5072348;28;20028;-35
2021/01/15 12:05:15;;;;;;;19.63;13.27;;;19.90;99.90;;;;;;5072550;28;20056;-35
2021/01/15 12:07:41;;;;;;;12.93;9.32;;;20.00;99.90;;;;;;5072374;28;20027;-35
2021/01/15 12:10:08;;;;;;;12.90;9.02;;;20.10;99.90;;;;;;5072390;28;20021;-35
2021/01/15 12:12:40;;;;;;;13.52;8.75;;;20.10;99.90;;;;;;5072182;28;20070;-38
2021/01/15 12:15:09;;;;;;;14.18;9.38;;;20.10;99.90;;;;;;5069559;28;20035;-35
2021/01/15 12:17:35;;;;;;;13.00;8.00;;;20.20;99.90;;;;;;5071713;28;20552;-35
2021/01/15 12:20:00;;;;;;;11.65;8.07;;;20.30;99.90;;;;;;5072237;28;20034;-35
2021/01/15 12:22:26;;;;;;;11.48;8.07;;;20.40;99.90;;;;;;5071154;28;20030;-34
2021/01/15 12:24:52;;;;;;;12.93;8.35;;;20.50;99.90;;;;;;5072169;28;20035;-33
2021/01/15 12:27:18;;;;;;;69.32;52.95;;;20.60;99.90;;;;;;5072332;28;20031;-33
2021/01/15 12:29:44;;;;;;;19.55;13.90;;;20.80;99.90;;;;;;5074841;28;20056;-34
2021/01/15 12:32:10;;;;;;;20.58;11.48;;;21.00;99.90;;;;;;5075949;28;20462;-33
2021/01/15 12:34:36;;;;;;;23.40;11.63;;;21.30;99.90;;;;;;5075912;28;20034;-34
2021/01/15 12:37:02;;;;;;;16.80;8.95;;;22.10;99.90;;;;;;5076026;28;20105;-34
2021/01/15 12:39:28;;;;;;;11.65;7.28;;;24.40;99.90;;;;;;5075952;28;20025;-34
2021/01/15 12:41:53;;;;;;;10.63;6.53;;;26.20;99.90;;;;;;5076136;28;20467;-33